Terminal Aerodrome Forecast
Issued by NWS Columbia, SC

Home | Current Version | Previous Version | Text Only | Print | Product List | Glossary On
Versions: 1 2 3 4 5 6 7 8 9 10 11 12 13 14 15 16 17 18 19 20 21 22 23 24 25 26 27 28
746
FTUS42 KCAE 051137
TAFCAE
TAF
KCAE 051137Z 0512/0612 27010G17KT P6SM SCT080
     FM051700 30014G22KT P6SM VCSH BKN060
     FM052300 31010KT P6SM BKN060
     FM060500 29007KT P6SM SCT060 BKN150=

USA.gov is the U.S. government's official web portal to all federal, state and local government web resources and services.